Terminal Aerodrome Forecast
Issued by NWS St Louis, MO

Home | Current Version | Previous Version | Text Only | Print | Product List | Glossary On
Versions: 1 2 3 4 5 6 7 8 9 10 11 12 13 14 15 16
365
FTUS43 KLSX 132320
TAFCOU
TAF
KCOU 132320Z 1400/1424 16007KT P6SM BKN050
     FM140400 17008KT P6SM SCT200
     FM141000 18007KT P6SM BKN050
     FM141800 20011KT P6SM BKN110=

USA.gov is the U.S. government's official web portal to all federal, state and local government web resources and services.